createdAt,value
2023-01-22T00:01:20.180Z,39.20
2023-01-22T00:03:51.338Z,41.80
2023-01-22T00:06:18.138Z,45.00
2023-01-22T00:08:44.998Z,40.42
2023-01-22T00:11:12.268Z,39.33
2023-01-22T00:13:40.847Z,34.28
2023-01-22T00:16:08.506Z,33.08
2023-01-22T00:18:35.305Z,34.60
2023-01-22T00:21:03.066Z,33.97
2023-01-22T00:23:29.759Z,33.13
2023-01-22T00:26:02.194Z,31.30
2023-01-22T00:28:29.807Z,36.97
2023-01-22T00:31:04.815Z,34.67
2023-01-22T00:33:32.495Z,32.53
2023-01-22T00:36:07.158Z,28.35
2023-01-22T00:38:34.678Z,32.15
2023-01-22T00:41:05.736Z,32.83
2023-01-22T00:43:34.235Z,33.10
2023-01-22T00:46:02.560Z,26.27
2023-01-22T00:48:29.257Z,24.23
2023-01-22T00:50:56.093Z,25.67
2023-01-22T00:53:22.903Z,23.25
2023-01-22T00:55:54.152Z,24.10
2023-01-22T00:58:21.468Z,25.67
2023-01-22T01:00:48.389Z,29.40
2023-01-22T01:03:27.777Z,27.98
2023-01-22T01:05:55.240Z,27.35
2023-01-22T01:08:23.017Z,26.95
2023-01-22T01:10:57.575Z,29.05
2023-01-22T01:13:24.970Z,26.85
2023-01-22T01:15:59.481Z,28.13
2023-01-22T01:18:26.205Z,25.95
2023-01-22T01:20:56.943Z,25.50
2023-01-22T01:25:51.658Z,26.88
2023-01-22T01:28:18.988Z,24.83
2023-01-22T01:30:46.154Z,26.83
2023-01-22T01:33:13.454Z,25.50
2023-01-22T01:35:40.422Z,28.65
2023-01-22T01:38:07.606Z,25.73
2023-01-22T01:40:35.471Z,25.27
2023-01-22T01:43:02.209Z,30.00
2023-01-22T01:45:34.384Z,25.65
2023-01-22T01:48:12.123Z,26.83
2023-01-22T01:50:46.123Z,29.05
2023-01-22T01:53:13.371Z,35.30
2023-01-22T01:55:40.715Z,30.25
2023-01-22T01:58:18.411Z,29.38
2023-01-22T02:00:46.892Z,35.15
2023-01-22T02:03:13.668Z,32.17
2023-01-22T02:05:40.509Z,32.20
2023-01-22T02:08:09.181Z,28.83
2023-01-22T02:10:36.691Z,30.15
2023-01-22T02:13:14.659Z,34.00
2023-01-22T02:15:42.627Z,30.58
2023-01-22T02:18:09.338Z,27.27
2023-01-22T02:20:40.115Z,29.75
2023-01-22T02:23:07.532Z,29.48
2023-01-22T02:25:34.672Z,30.92
2023-01-22T02:28:01.495Z,30.75
2023-01-22T02:30:29.851Z,29.25
2023-01-22T02:32:56.627Z,28.98
2023-01-22T02:35:23.415Z,26.13
2023-01-22T02:37:50.294Z,27.38
2023-01-22T02:40:17.381Z,25.45
2023-01-22T02:42:44.289Z,24.70
2023-01-22T02:45:11.610Z,27.23
2023-01-22T02:47:38.317Z,27.58
2023-01-22T02:50:05.548Z,26.40
2023-01-22T02:52:32.342Z,25.17
2023-01-22T02:55:00.091Z,29.65
2023-01-22T02:57:29.287Z,26.00
2023-01-22T02:59:55.939Z,25.25
2023-01-22T03:02:22.780Z,25.27
2023-01-22T03:04:50.256Z,27.10
2023-01-22T03:07:20.114Z,25.35
2023-01-22T03:09:47.748Z,25.52
2023-01-22T03:12:14.533Z,25.52
2023-01-22T03:15:01.241Z,26.73
2023-01-22T03:17:46.754Z,23.77
2023-01-22T03:20:32.219Z,25.85
2023-01-22T03:22:59.215Z,22.77
2023-01-22T03:25:25.886Z,28.98
2023-01-22T03:28:09.220Z,26.35
2023-01-22T03:30:35.911Z,22.35
2023-01-22T03:33:02.674Z,20.50
2023-01-22T03:35:30.543Z,22.33
2023-01-22T03:37:57.220Z,19.60
2023-01-22T03:40:23.940Z,19.50
2023-01-22T03:42:50.600Z,20.83
2023-01-22T03:45:17.308Z,21.25
2023-01-22T03:47:44.071Z,20.40
2023-01-22T03:50:10.858Z,21.00
2023-01-22T03:52:37.532Z,20.35
2023-01-22T03:55:04.554Z,23.05
2023-01-22T03:57:31.275Z,22.02
2023-01-22T04:00:02.039Z,24.95
2023-01-22T04:02:29.210Z,22.23
2023-01-22T04:04:55.917Z,24.98
2023-01-22T04:07:22.592Z,23.02
2023-01-22T04:09:50.714Z,24.45
2023-01-22T04:12:17.438Z,25.58
2023-01-22T04:14:44.473Z,22.80
2023-01-22T04:17:11.168Z,25.35
2023-01-22T04:19:39.439Z,23.70
2023-01-22T04:22:06.183Z,23.00
2023-01-22T04:24:32.901Z,25.38
2023-01-22T04:26:59.654Z,24.38
2023-01-22T04:29:26.741Z,24.58
2023-01-22T04:31:53.484Z,26.30
2023-01-22T04:34:22.949Z,25.88
2023-01-22T04:36:49.646Z,25.70
2023-01-22T04:39:16.421Z,26.45
2023-01-22T04:41:43.112Z,25.83
2023-01-22T04:44:09.910Z,26.75
2023-01-22T04:46:36.579Z,25.67
2023-01-22T04:49:03.362Z,23.70
2023-01-22T04:51:30.048Z,26.02
2023-01-22T04:53:56.719Z,25.58
2023-01-22T04:56:23.484Z,25.67
2023-01-22T04:58:50.228Z,26.30
2023-01-22T05:01:16.971Z,25.80
2023-01-22T05:03:43.709Z,25.08
2023-01-22T05:06:10.437Z,29.63
2023-01-22T05:08:37.385Z,25.90
2023-01-22T05:11:04.312Z,25.95
2023-01-22T05:13:31.011Z,23.77
2023-01-22T05:15:57.789Z,30.40
2023-01-22T05:18:24.569Z,28.65
2023-01-22T05:20:51.270Z,25.88
2023-01-22T05:23:18.013Z,27.88
2023-01-22T05:25:49.294Z,29.25
2023-01-22T05:28:16.219Z,27.67
2023-01-22T05:30:43.077Z,26.13
2023-01-22T05:33:11.394Z,28.95
2023-01-22T05:35:38.304Z,25.83
2023-01-22T05:38:05.030Z,31.08
2023-01-22T05:40:31.712Z,27.88
2023-01-22T05:42:58.482Z,31.10
2023-01-22T05:45:25.278Z,32.28
2023-01-22T05:47:53.490Z,29.80
2023-01-22T05:50:21.847Z,29.10
2023-01-22T05:52:53.420Z,28.50
2023-01-22T05:55:21.528Z,30.17
2023-01-22T05:57:48.505Z,27.85
2023-01-22T06:00:16.145Z,27.83
2023-01-22T06:02:43.281Z,33.67
2023-01-22T06:05:10.200Z,25.88
2023-01-22T06:07:36.892Z,27.52
2023-01-22T06:10:04.000Z,27.20
2023-01-22T06:12:30.767Z,26.98
2023-01-22T06:14:57.700Z,26.65
2023-01-22T06:17:24.442Z,26.92
2023-01-22T06:19:51.137Z,25.70
2023-01-22T06:22:19.212Z,29.35
2023-01-22T06:24:45.979Z,29.75
2023-01-22T06:27:12.726Z,29.70
2023-01-22T06:29:40.297Z,31.48
2023-01-22T06:32:07.333Z,32.75
2023-01-22T06:34:37.093Z,32.50
2023-01-22T06:37:03.907Z,29.13
2023-01-22T06:39:30.714Z,27.00
2023-01-22T06:41:57.545Z,26.70
2023-01-22T06:44:24.327Z,27.95
2023-01-22T06:46:51.076Z,28.30
2023-01-22T06:49:17.840Z,30.92
2023-01-22T06:51:44.597Z,34.15
2023-01-22T06:54:12.420Z,27.63
2023-01-22T06:56:39.131Z,23.45
2023-01-22T06:59:05.912Z,26.98
2023-01-22T07:01:32.665Z,27.75
2023-01-22T07:03:59.457Z,27.23
2023-01-22T07:06:26.216Z,29.98
2023-01-22T07:08:53.957Z,30.00
2023-01-22T07:11:20.638Z,28.30
2023-01-22T07:13:47.500Z,27.08
2023-01-22T07:16:14.254Z,27.02
2023-01-22T07:18:41.039Z,26.13
2023-01-22T07:21:07.953Z,30.88
2023-01-22T07:23:34.662Z,30.42
2023-01-22T07:26:01.403Z,39.50
2023-01-22T07:28:28.183Z,41.50
2023-01-22T07:30:56.425Z,34.63
2023-01-22T07:33:23.305Z,31.42
2023-01-22T07:35:56.638Z,32.55
2023-01-22T07:38:26.437Z,31.05
2023-01-22T07:40:53.690Z,31.35
2023-01-22T07:43:20.473Z,32.83
2023-01-22T07:45:47.138Z,32.05
2023-01-22T07:48:13.957Z,31.80
2023-01-22T07:50:40.638Z,32.28
2023-01-22T07:53:08.662Z,32.20
2023-01-22T07:55:35.345Z,32.55
2023-01-22T07:58:05.009Z,32.60
2023-01-22T08:00:34.913Z,32.85
2023-01-22T08:03:03.761Z,34.30
2023-01-22T08:05:30.507Z,32.35
2023-01-22T08:07:57.205Z,35.67
2023-01-22T08:10:23.921Z,32.13
2023-01-22T08:12:50.701Z,34.92
2023-01-22T08:15:17.555Z,28.75
2023-01-22T08:17:44.319Z,28.75
2023-01-22T08:20:11.697Z,28.55
2023-01-22T08:22:38.443Z,30.95
2023-01-22T08:25:05.604Z,34.75
2023-01-22T08:27:35.078Z,33.97
2023-01-22T08:30:02.643Z,32.13
2023-01-22T08:32:29.706Z,42.85
2023-01-22T08:34:57.433Z,44.20
2023-01-22T08:37:25.245Z,39.67
2023-01-22T08:39:52.232Z,34.55
2023-01-22T08:42:19.086Z,37.10
2023-01-22T08:44:45.797Z,34.13
2023-01-22T08:47:14.642Z,38.58
2023-01-22T08:49:44.089Z,32.05
2023-01-22T08:52:10.798Z,33.63
2023-01-22T08:54:37.521Z,34.95
2023-01-22T08:57:04.923Z,32.47
2023-01-22T08:59:31.689Z,36.95
2023-01-22T09:02:00.373Z,35.60
2023-01-22T09:04:28.065Z,35.72
2023-01-22T09:06:55.132Z,36.40
2023-01-22T09:09:22.371Z,33.97
2023-01-22T09:11:49.258Z,33.70
2023-01-22T09:14:15.973Z,36.15
2023-01-22T09:16:42.747Z,42.10
2023-01-22T09:19:11.099Z,40.78
2023-01-22T09:21:38.007Z,37.67
2023-01-22T09:24:05.772Z,43.63
2023-01-22T09:26:33.031Z,48.40
2023-01-22T09:29:01.087Z,43.72
2023-01-22T09:31:28.210Z,39.40
2023-01-22T09:33:55.670Z,42.60
2023-01-22T09:42:09.144Z,42.80
2023-01-22T09:44:39.732Z,45.75
2023-01-22T09:47:14.711Z,46.60
2023-01-22T09:50:09.686Z,47.70
2023-01-22T09:52:39.360Z,42.13
2023-01-22T09:56:10.006Z,42.00
2023-01-22T09:58:51.303Z,43.67
2023-01-22T10:05:43.981Z,43.03
2023-01-22T10:09:06.014Z,44.80
2023-01-22T10:11:32.865Z,47.78
2023-01-22T10:14:01.828Z,43.58
2023-01-22T10:16:29.143Z,43.85
2023-01-22T10:19:00.600Z,40.83
2023-01-22T10:21:30.365Z,42.47
2023-01-22T10:23:58.258Z,46.03
2023-01-22T10:26:47.938Z,45.33
2023-01-22T10:29:25.194Z,44.85
2023-01-22T10:32:16.487Z,44.75
2023-01-22T10:34:43.305Z,44.58
2023-01-22T10:37:18.606Z,42.78
2023-01-22T10:39:47.572Z,45.17
2023-01-22T10:42:17.411Z,43.53
2023-01-22T10:44:44.841Z,43.03
2023-01-22T10:47:20.781Z,44.75
2023-01-22T10:49:48.962Z,49.88
2023-01-22T10:52:27.071Z,42.40
2023-01-22T10:54:59.243Z,48.63
2023-01-22T10:57:33.370Z,46.47
2023-01-22T11:00:39.739Z,48.38
2023-01-22T11:03:22.416Z,47.65
2023-01-22T11:05:54.971Z,50.22
2023-01-22T11:08:25.565Z,47.10
2023-01-22T11:10:57.701Z,45.85
2023-01-22T11:13:47.228Z,47.60
2023-01-22T11:16:18.366Z,46.70
2023-01-22T11:19:23.820Z,51.25
2023-01-22T11:22:12.138Z,44.05
2023-01-22T11:24:47.321Z,51.78
2023-01-22T11:27:29.492Z,47.75
2023-01-22T11:30:33.514Z,51.47
2023-01-22T11:33:44.682Z,59.33
2023-01-22T11:36:21.316Z,54.88
2023-01-22T11:38:56.456Z,50.42
2023-01-22T11:41:37.273Z,54.70
2023-01-22T11:44:42.330Z,55.33
2023-01-22T11:47:29.830Z,48.20
2023-01-22T11:50:14.576Z,49.17
2023-01-22T11:52:46.910Z,48.03
2023-01-22T11:55:26.436Z,51.15
2023-01-22T11:58:26.899Z,44.53
2023-01-22T12:00:59.369Z,42.13
2023-01-22T12:03:53.898Z,46.15
2023-01-22T12:06:52.832Z,46.35
2023-01-22T12:09:22.539Z,45.80
2023-01-22T12:11:52.140Z,53.47
2023-01-22T12:14:40.523Z,42.38
2023-01-22T12:17:17.646Z,45.15
2023-01-22T12:19:44.309Z,44.95
2023-01-22T12:22:29.915Z,44.33
2023-01-22T12:25:22.766Z,41.97
2023-01-22T12:28:07.997Z,39.42
2023-01-22T12:30:49.318Z,40.15
2023-01-22T12:33:22.345Z,44.08
2023-01-22T12:35:52.174Z,40.97
2023-01-22T12:38:41.573Z,40.15
2023-01-22T12:41:15.435Z,42.05
2023-01-22T12:43:57.048Z,43.83
2023-01-22T12:46:38.788Z,39.03
2023-01-22T12:49:16.735Z,36.65
2023-01-22T12:51:46.066Z,37.28
2023-01-22T12:54:32.212Z,39.03
2023-01-22T12:57:17.245Z,38.65
2023-01-22T12:59:49.446Z,41.20
2023-01-22T13:02:37.921Z,39.08
2023-01-22T13:05:22.116Z,35.88
2023-01-22T13:07:50.135Z,35.60
2023-01-22T13:10:20.174Z,34.03
2023-01-22T13:12:50.597Z,31.45
2023-01-22T13:15:21.718Z,34.15
2023-01-22T13:18:07.136Z,29.92
2023-01-22T13:20:48.334Z,32.22
2023-01-22T13:23:15.767Z,33.75
2023-01-22T13:25:42.979Z,34.40
2023-01-22T13:28:16.527Z,33.33
2023-01-22T13:30:44.282Z,36.47
2023-01-22T13:33:15.832Z,38.13
2023-01-22T13:35:44.399Z,37.53
2023-01-22T13:38:28.735Z,37.45
2023-01-22T13:41:17.434Z,35.90
2023-01-22T13:43:46.756Z,36.35
2023-01-22T13:46:14.396Z,35.25
2023-01-22T13:48:41.757Z,40.38
2023-01-22T13:51:18.183Z,40.22
2023-01-22T13:53:50.747Z,35.97
2023-01-22T13:56:22.841Z,35.17
2023-01-22T13:58:50.424Z,39.90
2023-01-22T14:01:32.407Z,37.67
2023-01-22T14:04:28.203Z,39.13
2023-01-22T14:06:55.615Z,35.45
2023-01-22T14:09:29.613Z,36.47
2023-01-22T14:11:56.808Z,34.88
2023-01-22T14:14:23.524Z,32.78
2023-01-22T14:16:50.578Z,33.80
2023-01-22T14:19:17.484Z,38.08
2023-01-22T14:21:44.539Z,39.45
2023-01-22T14:24:11.340Z,37.72
2023-01-22T14:26:38.158Z,40.85
2023-01-22T14:29:04.869Z,43.60
2023-01-22T14:31:31.675Z,40.67
2023-01-22T14:33:58.463Z,37.15
2023-01-22T14:36:25.486Z,36.47
2023-01-22T14:38:53.528Z,38.17
2023-01-22T14:41:20.333Z,37.30
2023-01-22T14:43:47.051Z,36.08
2023-01-22T14:46:13.768Z,39.17
2023-01-22T14:48:40.557Z,38.55
2023-01-22T14:51:11.443Z,37.47
2023-01-22T14:53:39.214Z,35.85
2023-01-22T14:56:06.197Z,37.85
2023-01-22T14:58:32.970Z,37.97
2023-01-22T15:00:59.759Z,41.85
2023-01-22T15:03:29.633Z,42.85
2023-01-22T15:05:56.640Z,32.20
2023-01-22T15:08:23.592Z,32.40
2023-01-22T15:10:50.272Z,38.00
2023-01-22T15:13:17.076Z,31.15
2023-01-22T15:15:45.999Z,37.83
2023-01-22T15:18:15.002Z,34.60
2023-01-22T15:20:41.751Z,35.47
2023-01-22T15:23:08.477Z,36.00
2023-01-22T15:25:35.435Z,35.88
2023-01-22T15:28:03.009Z,34.28
2023-01-22T15:30:30.094Z,36.25
2023-01-22T15:32:57.904Z,33.67
2023-01-22T15:35:24.653Z,37.08
2023-01-22T15:37:51.597Z,40.90
2023-01-22T15:40:18.984Z,41.53
2023-01-22T15:42:45.913Z,39.78
2023-01-22T15:45:13.029Z,39.17
2023-01-22T15:47:39.781Z,37.65
2023-01-22T15:50:07.101Z,40.10
2023-01-22T15:52:33.966Z,39.65
2023-01-22T15:55:00.792Z,39.92
2023-01-22T15:57:28.113Z,39.85
2023-01-22T15:59:54.806Z,38.13
2023-01-22T16:02:22.536Z,39.17
2023-01-22T16:04:49.537Z,39.05
2023-01-22T16:07:16.290Z,39.70
2023-01-22T16:09:43.253Z,37.00
2023-01-22T16:12:09.965Z,36.20
2023-01-22T16:14:36.784Z,34.65
2023-01-22T16:17:04.846Z,37.72
2023-01-22T16:19:31.680Z,35.58
2023-01-22T16:21:58.424Z,33.65
2023-01-22T16:24:25.159Z,35.50
2023-01-22T16:26:51.993Z,34.00
2023-01-22T16:29:18.690Z,37.85
2023-01-22T16:31:46.051Z,33.92
2023-01-22T16:34:15.619Z,36.67
2023-01-22T16:36:43.814Z,37.75
2023-01-22T16:39:20.755Z,38.13
2023-01-22T16:41:49.325Z,36.38
2023-01-22T16:44:19.114Z,40.58
2023-01-22T16:46:52.374Z,43.28
2023-01-22T16:49:24.578Z,40.70
2023-01-22T16:51:57.124Z,48.63
2023-01-22T16:54:34.117Z,42.00
2023-01-22T16:57:06.550Z,39.72
2023-01-22T16:59:35.679Z,39.03
2023-01-22T17:02:05.103Z,47.17
2023-01-22T17:04:32.392Z,56.97
2023-01-22T17:07:00.388Z,50.88
2023-01-22T17:09:30.191Z,48.45
2023-01-22T17:11:59.770Z,50.10
2023-01-22T17:14:29.739Z,51.83
2023-01-22T17:16:57.925Z,52.22
2023-01-22T17:19:24.837Z,54.15
2023-01-22T17:21:59.947Z,47.80
2023-01-22T17:24:28.159Z,50.80
2023-01-22T17:26:57.978Z,48.75
2023-01-22T17:29:25.516Z,48.03
2023-01-22T17:31:54.830Z,49.15
2023-01-22T17:34:21.990Z,50.28
2023-01-22T17:36:51.075Z,53.50
2023-01-22T17:39:22.682Z,55.85
2023-01-22T17:41:51.753Z,48.72
2023-01-22T17:44:18.827Z,46.92
2023-01-22T17:46:45.820Z,48.95
2023-01-22T17:49:13.517Z,49.90
2023-01-22T17:51:40.844Z,56.08
2023-01-22T17:54:08.039Z,53.65
2023-01-22T17:56:37.597Z,53.70
2023-01-22T17:59:07.408Z,53.67
2023-01-22T18:01:38.932Z,52.55
2023-01-22T18:04:08.596Z,52.30
2023-01-22T18:06:36.739Z,57.80
2023-01-22T18:09:05.593Z,49.08
2023-01-22T18:11:33.482Z,53.40
2023-01-22T18:14:03.101Z,58.60
2023-01-22T18:16:34.378Z,64.27
2023-01-22T18:19:03.659Z,54.22
2023-01-22T18:21:30.623Z,55.03
2023-01-22T18:23:59.562Z,54.22
2023-01-22T18:26:29.438Z,53.67
2023-01-22T18:28:58.120Z,58.97
2023-01-22T18:31:28.352Z,57.72
2023-01-22T18:34:04.011Z,51.83
2023-01-22T18:36:34.180Z,63.75
2023-01-22T18:39:08.761Z,53.92
2023-01-22T18:41:36.564Z,52.00
2023-01-22T18:44:04.477Z,52.50
2023-01-22T18:46:33.741Z,46.75
2023-01-22T18:49:03.583Z,47.85
2023-01-22T18:51:32.900Z,49.40
2023-01-22T18:54:02.301Z,50.00
2023-01-22T18:56:29.332Z,45.42
2023-01-22T18:58:58.620Z,47.63
2023-01-22T19:01:31.018Z,47.55
2023-01-22T19:04:01.799Z,46.67
2023-01-22T19:09:03.812Z,49.30
2023-01-22T19:11:33.262Z,49.45
2023-01-22T19:14:03.080Z,45.75
2023-01-22T19:16:30.397Z,45.88
2023-01-22T19:19:02.894Z,44.17
2023-01-22T19:21:30.802Z,50.40
2023-01-22T19:24:00.154Z,52.13
2023-01-22T19:26:32.562Z,50.28
2023-01-22T19:29:04.564Z,49.90
2023-01-22T19:31:34.725Z,53.90
2023-01-22T19:34:03.197Z,51.15
2023-01-22T19:36:33.946Z,48.58
2023-01-22T19:39:03.585Z,59.38
2023-01-22T19:41:31.240Z,53.03
2023-01-22T19:44:01.187Z,56.65
2023-01-22T19:46:28.977Z,54.55
2023-01-22T19:48:56.364Z,52.88
2023-01-22T19:51:24.682Z,49.08
2023-01-22T19:53:51.956Z,47.35
2023-01-22T19:56:27.412Z,47.35
2023-01-22T19:58:58.485Z,45.78
2023-01-22T20:01:25.708Z,43.60
2023-01-22T20:03:54.932Z,49.83
2023-01-22T20:06:23.643Z,49.65
2023-01-22T20:08:55.047Z,49.75
2023-01-22T20:11:25.274Z,46.40
2023-01-22T20:13:52.244Z,46.10
2023-01-22T20:16:25.895Z,47.13
2023-01-22T20:18:54.193Z,44.83
2023-01-22T20:21:22.265Z,51.67
2023-01-22T20:23:50.179Z,51.20
2023-01-22T20:26:18.600Z,53.15
2023-01-22T20:28:46.114Z,47.83
2023-01-22T20:31:17.308Z,53.75
2023-01-22T20:33:44.268Z,54.00
2023-01-22T20:36:15.100Z,54.53
2023-01-22T20:38:43.461Z,53.03
2023-01-22T20:41:10.299Z,47.95
2023-01-22T20:43:39.352Z,47.08
2023-01-22T20:46:08.222Z,52.65
2023-01-22T20:48:35.855Z,52.50
2023-01-22T20:51:03.786Z,48.08
2023-01-22T20:53:31.135Z,47.85
2023-01-22T20:56:00.374Z,58.65
2023-01-22T20:58:27.817Z,55.38
2023-01-22T21:00:54.746Z,48.25
2023-01-22T21:03:22.173Z,46.75
2023-01-22T21:05:48.861Z,53.95
2023-01-22T21:08:15.629Z,50.83
2023-01-22T21:10:42.445Z,54.20
2023-01-22T21:13:09.231Z,47.88
2023-01-22T21:15:36.802Z,48.92
2023-01-22T21:18:03.646Z,39.72
2023-01-22T21:20:30.466Z,46.97
2023-01-22T21:22:57.228Z,46.42
2023-01-22T21:25:23.940Z,49.92
2023-01-22T21:27:51.252Z,46.17
2023-01-22T21:30:18.321Z,42.20
2023-01-22T21:32:49.487Z,40.78
2023-01-22T21:35:16.212Z,40.95
2023-01-22T21:37:42.982Z,40.05
2023-01-22T21:40:13.258Z,42.35
2023-01-22T21:42:59.062Z,43.80
2023-01-22T21:45:45.327Z,44.28
2023-01-22T21:48:12.235Z,46.45
2023-01-22T21:50:41.558Z,51.85
2023-01-22T21:53:09.447Z,49.40
2023-01-22T21:55:36.746Z,52.10
2023-01-22T21:58:04.197Z,47.55
2023-01-22T22:00:31.573Z,46.22
2023-01-22T22:02:58.434Z,51.15
2023-01-22T22:05:25.198Z,45.47
2023-01-22T22:07:51.970Z,44.45
2023-01-22T22:10:20.309Z,47.28
2023-01-22T22:12:47.132Z,48.20
2023-01-22T22:15:13.886Z,43.42
2023-01-22T22:17:40.668Z,44.13
2023-01-22T22:20:10.306Z,44.90
2023-01-22T22:22:37.102Z,40.97
2023-01-22T22:25:04.123Z,40.75
2023-01-22T22:27:30.793Z,40.30
2023-01-22T22:29:57.555Z,38.40
2023-01-22T22:32:24.265Z,42.45
2023-01-22T22:34:50.998Z,40.70
2023-01-22T22:37:17.715Z,41.33
2023-01-22T22:39:44.425Z,41.50
2023-01-22T22:42:11.194Z,40.55
2023-01-22T22:44:37.899Z,50.00
2023-01-22T22:47:06.001Z,57.35
2023-01-22T22:49:32.817Z,60.22
2023-01-22T22:51:59.604Z,53.88
2023-01-22T22:54:27.373Z,49.75
2023-01-22T22:56:54.180Z,43.40
2023-01-22T22:59:21.086Z,48.95
2023-01-22T23:01:49.160Z,42.83
2023-01-22T23:04:16.399Z,41.22
2023-01-22T23:06:45.118Z,43.88
2023-01-22T23:09:18.128Z,42.25
2023-01-22T23:11:45.843Z,43.92
2023-01-22T23:14:12.887Z,41.15
2023-01-22T23:16:41.828Z,42.25
2023-01-22T23:19:16.725Z,42.10
2023-01-22T23:21:44.218Z,42.58
2023-01-22T23:24:13.018Z,41.63
2023-01-22T23:26:41.584Z,45.72
2023-01-22T23:29:10.614Z,44.05
2023-01-22T23:31:39.271Z,40.67
2023-01-22T23:34:10.455Z,40.78
2023-01-22T23:36:39.804Z,42.08
2023-01-22T23:39:06.778Z,45.60
2023-01-22T23:41:33.473Z,39.25
2023-01-22T23:44:00.339Z,42.30
2023-01-22T23:46:28.830Z,43.47
2023-01-22T23:48:56.347Z,45.65
2023-01-22T23:51:23.561Z,47.08
2023-01-22T23:53:52.326Z,47.97
2023-01-22T23:56:27.357Z,43.38
2023-01-22T23:58:55.625Z,44.17
